DGAAGOOY

Guest
Details From DGAA - Kotoka Intl
To GOOY - Dakar Leopold Sedar Senghor Intl
Flight Number -
Tags Generated
Created
Modified
Stats Distance 1,161 nm / 2,151 km
Max Altitude 0 ft / 0 m
Waypoints 3
Social Downloads 0
Likes 0
Share VATSIM

Download

Looking for another format? Having issues loading an existing format? Contact us
Advertisement - Login to hide

Notes

Generated

Route

DGAA YF145 GOOY

ID Type Via Altitude (ft/m) Position (lat/lon) Dist (leg/tot) Name
O DGAA APT - 0 / 0 5.59096 / -0.17264 - / 0 nm
YF145 FIX - 0 / 0 14.64872 / -17.33385 1150 / 1150 nm
O GOOY APT - 0 / 0 14.73171 / -17.50427 11 / 1161 nm

Altitude Profile

Advertisement - Login to hide

Weather


0- 5 10 15 20 25 30 35+ Temperature / °C

Clouds and Precipitation
Forecast for 2018-12-18 18:00 UTC. Updated 14 minutes ago

Ground ~20,000 ft ~40,000 ft Winds

DGAA

Details ICAO DGAA (ACC)
Name Accra Kotoka Intl
Region Ghana
Timezone Africa/Accra (UTC+0.0)
Stats Elevation 204 ft / 62 m (AMSL)
Location 5.604660° -0.167449°
Runways 1
Magnetic Variation 3.313° W

METAR

Not found

TAF

TAF TAF DGAA 180500Z 1806/1912 27010KT 8000 NSC BECMG 1806/1808 3000 BR FM181100 18010KT 5000 HZ FEW030 BECMG 1820/1822 24006KT CAVOK PROB40 1905/1907 3000 BR

Decode

Departure Runways

ID Width Length Bearing (true/mag) Surface Threshold Overrun Markings Lighting
03 200 ft / 61 m 11,772 ft / 3,588 m 22.24° / 25.55° ASPHALT 354 ft / 108 m 0 ft / 0 m APP CENTERLINE EDGE THRESHOLD MALS
21 200 ft / 61 m 11,772 ft / 3,588 m 202.24° / 205.55° ASPHALT 1,542 ft / 470 m 0 ft / 0 m PREC-APP CENTERLINE EDGE THRESHOLD ALSF-I TDZ

GOOY

Details ICAO GOOY (DKR)
Name Dakar - Leopold Sedar Senghor Intl
Region Senegal
Timezone Africa/Dakar (UTC+0.0)
Stats Elevation 84 ft / 26 m (AMSL)
Location 14.740100° -17.490400°
Runways 2
Magnetic Variation 7.233° W

METAR

GOOY 181500Z 36010KT CAVOK 25/17 Q1014

Decode

TAF

TAF GOOY 181130Z 1812/1918 04012KT CAVOK= TAF GOBD 181130Z 1812/1918 06012KT CAVOK

Decode

Destination Runways

ID Width Length Bearing (true/mag) Surface Threshold Overrun Markings Lighting
03 98 ft / 30 m 4,916 ft / 1,498 m 22.33° / 29.56° ASPHALT 0 ft / 0 m 98 ft / 30 m APP
18 148 ft / 45 m 11,483 ft / 3,500 m 172.61° / 179.84° ASPHALT 525 ft / 160 m 220 ft / 67 m APP EDGE THRESHOLD
21 98 ft / 30 m 4,916 ft / 1,498 m 202.33° / 209.56° ASPHALT 0 ft / 0 m 1,591 ft / 485 m APP
36 148 ft / 45 m 11,483 ft / 3,500 m 352.61° / 359.84° ASPHALT 0 ft / 0 m 213 ft / 65 m PREC-APP EDGE THRESHOLD ALSF-I

Approach Navaids

Runway Type Ident Frequency Range Bearing (true/mag) Slope Elevation
36 MM MM - - 352.57° / 359.80 ° - 144 ft / 44 m (AMSL)
36 DME YF 110.30 MHz 18 nm / 33 km - - 73 ft / 22 m (AMSL)
36 LOC-ILS YF 110.30 MHz 18 nm / 33 km 352.33° / 359.56 ° - 65 ft / 20 m (AMSL)
36 GS YF 110.30 MHz 10 nm / 19 km 353.14° / 0.38 ° 3.01° 73 ft / 22 m (AMSL)

Popular Alternatives